Flight Track Log - Related Links

Times and Time Zones

All times are in EDT time to prevent confusion due to time zone crossing. See the SKW6345 flight status page for this flight to view local times or setup timezone preferences in your user account.

Time Position Orientation Groundspeed Altitude Reporting Facility
EDT Latitude Longitude Course Direction KTS MPH feet Rate Location/Type
Sun 02:56:17 PM 45.8006 -111.2242 283° West 200 230 6,200  Level Salt Lake Center
Sun 02:57:19 PM 45.7722 -111.3017 242° Southwest 219 252 8,000 1,742 Climbing Salt Lake Center
Sun 02:58:00 PM 45.7333 -111.5511 270° West  Level FlightAware Approximate
Sun 02:58:21 PM 45.7428 -111.3925 245° Southwest 235 270 9,800  Level Salt Lake Center
Sun 02:59:00 PM 45.7486 -111.7017 288° West  Level FlightAware Approximate
Sun 02:59:23 PM 45.7306 -111.5006 261° West 269 310 11,700  Level Salt Lake Center
Sun 03:00:00 PM 45.7828 -111.8478 290° West  Level FlightAware Approximate
Sun 03:00:25 PM 45.7456 -111.6414 279° West 292 336 14,400  Level Salt Lake Center
Sun 03:01:00 PM 45.8208 -111.9916 283° West  Level FlightAware Approximate
Sun 03:01:27 PM 45.7708 -111.7600 287° West 306 352 16,500  Level Salt Lake Center
Sun 03:02:29 PM 45.7983 -111.8822 288° West 320 368 18,300 1,935 Climbing Salt Lake Center
Sun 03:03:31 PM 45.8256 -112.0111 287° West 333 383 20,500 1,790 Climbing Salt Lake Center
Sun 03:04:33 PM 45.8531 -112.1414 287° West 341 392 22,000 1,597 Climbing Salt Lake Center
Sun 03:05:35 PM 45.8094 -112.2628 243° Southwest 347 399 23,800 1,584 Climbing Salt Lake Center
Sun 03:06:38 PM 45.7422 -112.4003 235° Southwest 351 404 25,300 1,248 Climbing Salt Lake Center
Sun 03:07:40 PM 45.6786 -112.5197 233° Southwest 370 426 26,400 1,113 Climbing Salt Lake Center
Sun 03:08:42 PM 45.6139 -112.6422 233° Southwest 384 442 27,600 1,065 Climbing Salt Lake Center
Sun 03:09:44 PM 45.5472 -112.7678 233° Southwest 394 453 28,600 1,016 Climbing Salt Lake Center
Sun 03:10:46 PM 45.4789 -112.8972 233° Southwest 406 467 29,700 1,113 Climbing Salt Lake Center
Sun 03:11:48 PM 45.4100 -113.0269 233° Southwest 411 473 30,900 1,113 Climbing Salt Lake Center
Sun 03:12:50 PM 45.3381 -113.1619 233° Southwest 405 466 32,000 1,161 Climbing Salt Lake Center
Sun 03:13:52 PM 45.2606 -113.3044 232° Southwest 408 470 33,300 1,065 Climbing Salt Lake Center
Sun 03:14:54 PM 45.1956 -113.4239 232° Southwest 403 464 34,200 968 Climbing Salt Lake Center
Sun 03:15:56 PM 45.1219 -113.5622 233° Southwest 396 456 35,300 1,016 Climbing Salt Lake Center
Sun 03:16:58 PM 45.0567 -113.6786 232° Southwest 394 453 36,300 871 Climbing Salt Lake Center
Sun 03:18:00 PM 44.9839 -113.8125 232° Southwest 387 445 37,100 629 Climbing Salt Lake Center
Sun 03:19:02 PM 44.9208 -113.9275 232° Southwest 387 445 37,600 435 Climbing Salt Lake Center
Sun 03:20:04 PM 44.8508 -114.0542 232° Southwest 386 444 38,000 192 Climbing Salt Lake Center
Sun 03:21:07 PM 44.7764 -114.1886 232° Southwest 389 448 38,000  Level Salt Lake Center
Sun 03:22:08 PM 44.7136 -114.3017 232° Southwest 385 443 38,000  Level Salt Lake Center
Sun 03:23:10 PM 44.6392 -114.4325 231° Southwest 383 441 38,000  Level Salt Lake Center
Sun 03:24:12 PM 44.5753 -114.5472 232° Southwest 387 445 38,000  Level Salt Lake Center
Sun 03:25:14 PM 44.5086 -114.6644 231° Southwest 397 457 38,000  Level Salt Lake Center
Sun 03:26:16 PM 44.4319 -114.8006 232° Southwest 398 458 38,000  Level Salt Lake Center
Sun 03:27:18 PM 44.3644 -114.9192 232° Southwest 403 464 38,000  Level Salt Lake Center
Sun 03:28:21 PM 44.2842 -115.0575 231° Southwest 408 470 38,000  Level Salt Lake Center
Sun 03:29:23 PM 44.2131 -115.1778 231° Southwest 416 479 38,000  Level Salt Lake Center
Sun 03:30:25 PM 44.1333 -115.3186 232° Southwest 414 476 38,000  Level Salt Lake Center
Sun 03:31:27 PM 44.0650 -115.4364 231° Southwest 408 470 38,000  Level Salt Lake Center
Sun 03:32:29 PM 43.9847 -115.5744 231° Southwest 409 471 38,000  Level Salt Lake Center
Sun 03:33:31 PM 43.9169 -115.6889 231° Southwest 402 463 38,000  Level Salt Lake Center
Sun 03:34:33 PM 43.8494 -115.8064 231° Southwest 404 465 38,000  Level Salt Lake Center
Sun 03:35:35 PM 43.7697 -115.9411 231° Southwest 403 464 38,000  Level Salt Lake Center
Sun 03:36:37 PM 43.7017 -116.0558 231° Southwest 401 461 38,000  Level Salt Lake Center
Sun 03:37:39 PM 43.6236 -116.1886 231° Southwest 398 458 38,000  Level Salt Lake Center
Sun 03:38:41 PM 43.5558 -116.3017 230° Southwest 398 458 38,000  Level Salt Lake Center
Sun 03:39:43 PM 43.4769 -116.4331 230° Southwest 398 458 38,000  Level Salt Lake Center
Sun 03:40:45 PM 43.4097 -116.5439 230° Southwest 395 455 38,000  Level Salt Lake Center
Sun 03:41:47 PM 43.3319 -116.6736 231° Southwest 393 452 38,000  Level Salt Lake Center
Sun 03:42:49 PM 43.2639 -116.7847 230° Southwest 396 456 38,000  Level Salt Lake Center
Sun 03:43:51 PM 43.1969 -116.8947 230° Southwest 392 451 38,000  Level Salt Lake Center
Sun 03:44:53 PM 43.1189 -117.0219 230° Southwest 392 451 38,000  Level Salt Lake Center
Sun 03:45:55 PM 43.0514 -117.1314 230° Southwest 393 452 38,000  Level Salt Lake Center
Sun 03:46:57 PM 42.9736 -117.2581 230° Southwest 390 449 38,000  Level Salt Lake Center
Sun 03:47:59 PM 42.9061 -117.3669 230° Southwest 392 451 38,000  Level Salt Lake Center
Sun 03:49:02 PM 42.8261 -117.4950 230° Southwest 397 457 38,000  Level Salt Lake Center
Sun 03:50:04 PM 42.7569 -117.6058 230° Southwest 399 459 38,000  Level Salt Lake Center
Sun 03:51:06 PM 42.6756 -117.7364 230° Southwest 403 464 38,000  Level Salt Lake Center
Sun 03:52:08 PM 42.6042 -117.8433 228° Southwest 401 461 38,000  Level Salt Lake Center
Sun 03:53:10 PM 42.4950 -117.9208 208° Southwest 395 455 38,000  Level Salt Lake Center
Sun 03:54:12 PM 42.3981 -117.9831 205° Southwest 399 459 38,000  Level Salt Lake Center
Sun 03:55:14 PM 42.2842 -118.0561 205° Southwest 405 466 38,000  Level Salt Lake Center
Sun 03:56:16 PM 42.1883 -118.1150 204° Southwest 406 467 38,000  Level Salt Lake Center
Sun 03:57:18 PM 42.0731 -118.1842 204° Southwest 407 468 38,000  Level Salt Lake Center
Sun 03:58:20 PM 41.9728 -118.2456 204° Southwest 411 473 38,000  Level Salt Lake Center
Sun 03:59:22 PM 41.8572 -118.3158 204° Southwest 410 472 38,000  Level Salt Lake Center
Sun 04:00:24 PM 41.7567 -118.3756 204° Southwest 412 474 38,000  Level Salt Lake Center
Sun 04:01:26 PM 41.6389 -118.4456 204° Southwest 413 475 38,000  Level Salt Lake Center
Sun 04:02:28 PM 41.5392 -118.5044 204° Southwest 410 472 38,000  Level Salt Lake Center
Sun 04:03:30 PM 41.4392 -118.5639 204° Southwest 412 474 38,000  Level Salt Lake Center
Sun 04:04:32 PM 41.3214 -118.6333 204° Southwest 414 476 38,000  Level Salt Lake Center
Sun 04:05:34 PM 41.2206 -118.6933 204° Southwest 414 476 38,000  Level Salt Lake Center
Sun 04:06:36 PM 41.1011 -118.7622 203° Southwest 417 480 38,000  Level Salt Lake Center
Sun 04:07:38 PM 41.0006 -118.8208 204° Southwest 415 478 38,000  Level Salt Lake Center
Sun 04:08:40 PM 40.8814 -118.8889 203° Southwest 414 476 38,000  Level Salt Lake Center
Sun 04:09:42 PM 40.7939 -118.9756 217° Southwest 414 476 38,000  Level Salt Lake Center
Sun 04:10:25 PM 40.7294 -119.0722 229° Southwest 415 478 38,000  Level Oakland Center
Sun 04:11:26 PM 40.6536 -119.1864 229° Southwest 417 480 38,000  Level Oakland Center
Sun 04:12:28 PM 40.5772 -119.2994 228° Southwest 414 476 38,000  Level Oakland Center
Sun 04:13:30 PM 40.5006 -119.4133 229° Southwest 416 479 38,000  Level Oakland Center
Sun 04:14:32 PM 40.4261 -119.5272 229° Southwest 414 476 38,000  Level Oakland Center
Sun 04:15:33 PM 40.3494 -119.6411 229° Southwest 417 480 38,000  Level Oakland Center
Sun 04:16:35 PM 40.2742 -119.7542 229° Southwest 413 475 38,000  Level Oakland Center
Sun 04:17:37 PM 40.1836 -119.8881 229° Southwest 412 474 38,000  Level Oakland Center
Sun 04:18:39 PM 40.1078 -120.0017 229° Southwest 415 478 38,000  Level Oakland Center
Sun 04:19:40 PM 40.0303 -120.1139 228° Southwest 416 479 38,000  Level Oakland Center
Sun 04:20:42 PM 39.9594 -120.2275 231° Southwest 411 473 38,000  Level Oakland Center
Sun 04:21:44 PM 39.8831 -120.3383 228° Southwest 411 473 38,000  Level Oakland Center
Sun 04:22:46 PM 39.8064 -120.4492 228° Southwest 411 473 38,000  Level Oakland Center
Sun 04:23:47 PM 39.7294 -120.5611 228° Southwest 414 476 38,000  Level Oakland Center
Sun 04:24:49 PM 39.6383 -120.6950 229° Southwest 413 475 38,000  Level Oakland Center
Sun 04:25:51 PM 39.5614 -120.8058 228° Southwest 414 476 38,000  Level Oakland Center
Sun 04:26:53 PM 39.4836 -120.9164 228° Southwest 416 479 38,000  Level Oakland Center
Sun 04:27:54 PM 39.4069 -121.0256 228° Southwest 411 473 38,000  Level Oakland Center
Sun 04:28:56 PM 39.3300 -121.1358 228° Southwest 413 475 38,000  Level Oakland Center
Sun 04:29:58 PM 39.2531 -121.2472 228° Southwest 416 479 38,000  Level Oakland Center
Sun 04:31:00 PM 39.1611 -121.3775 228° Southwest 413 475 38,000 -145 Level Oakland Center
Sun 04:32:02 PM 39.0839 -121.4850 227° Southwest 411 473 37,700 -732 Descending Oakland Center
Sun 04:33:03 PM 39.0056 -121.5961 228° Southwest 419 482 36,500 -1,268 Descending Oakland Center
Sun 04:34:05 PM 38.9256 -121.7075 227° Southwest 426 490 35,100 -1,403 Descending Oakland Center
Sun 04:35:07 PM 38.8483 -121.8150 227° Southwest 416 479 33,600 -1,016 Descending Oakland Center
Sun 04:36:09 PM 38.7717 -121.9233 228° Southwest 414 476 33,000 -435 Descending Oakland Center
Sun 04:37:11 PM 38.6778 -122.0542 227° Southwest 418 481 32,700 -823 Descending Oakland Center
Sun 04:38:13 PM 38.6061 -122.1503 226° Southwest 417 480 31,300 -1,548 Descending Oakland Center
Sun 04:39:15 PM 38.5317 -122.2542 228° Southwest 400 460 29,500 -1,935 Descending Oakland Center
Sun 04:40:17 PM 38.4439 -122.3742 227° Southwest 387 445 27,300 -2,049 Descending Oakland Center
Sun 04:41:18 PM 38.3711 -122.4728 227° Southwest 383 441 25,300 -2,098 Descending Oakland Center
Sun 04:42:20 PM 38.2969 -122.5739 227° Southwest 393 452 23,000 -2,304 Descending Oakland Center
Sun 04:43:23 PM 38.2228 -122.6758 227° Southwest 395 455 20,500 -2,371 Descending Oakland Center
Sun 04:44:24 PM 38.1525 -122.7703 227° Southwest 374 430 18,100 -2,439 Descending Oakland Center
Sun 04:45:26 PM 38.0617 -122.8192 203° Southwest 327 376 15,500 -2,226 Descending Oakland Center
Sun 04:46:28 PM 37.9878 -122.7611 148° Southeast 314 361 13,500 -1,887 Descending Oakland Center
Sun 04:47:30 PM 37.9219 -122.6958 142° Southeast 307 353 11,600 -1,210 Descending Oakland Center
Sun 04:48:32 PM 37.8606 -122.6308 140° Southeast 299 344 11,000 -383 Descending Oakland Center
Sun 04:49:04 PM 37.8167 -122.5833 139° Southeast 290 334 11,000  Level Northern Cal TRACON
Sun 04:50:04 PM 37.7667 -122.5333 142° Southeast 256 295 11,000  Level Northern Cal TRACON
Sun 04:51:04 PM 37.7167 -122.4667 133° Southeast 252 290 11,000  Level Northern Cal TRACON
Sun 04:52:04 PM 37.6500 -122.4167 149° Southeast 250 288 11,000  Level Northern Cal TRACON
Sun 04:53:04 PM 37.6000 -122.3667 142° Southeast 248 285 11,000 -50 Level Northern Cal TRACON
Sun 04:54:05 PM 37.5333 -122.3167 149° Southeast 246 283 10,900 -843 Descending Northern Cal TRACON
Sun 04:55:05 PM 37.4667 -122.2833 158° South 244 281 9,300 -950 Descending Northern Cal TRACON
Sun 04:56:05 PM 37.4167 -122.2667 165° South 249 287 9,000 -480 Descending Northern Cal TRACON
Sun 04:57:10 PM 37.3833 -122.3500 243° Southwest 244 281 8,300 -816 Descending Northern Cal TRACON
Sun 04:57:48 PM 37.3511 -122.3317 156° South 243 280 7,600 -1,080 Descending Oakland Center
Sun 04:58:50 PM 37.3794 -122.2672 61° Northeast 244 281 6,500 -968 Descending Oakland Center
Sun 04:59:52 PM 37.4258 -122.2139 42° Northeast 232 267 5,600 -581 Descending Oakland Center
Sun 05:00:54 PM 37.4714 -122.1594 43° Northeast 228 262 5,300 -242 Descending Oakland Center
Sun 05:01:56 PM 37.5219 -122.1592 360° North 208 239 5,100 -488 Descending Oakland Center
Sun 05:02:57 PM 37.5544 -122.2228 303° West 184 212 4,300 -1,122 Descending Oakland Center
Sun 05:03:59 PM 37.5767 -122.2747 298° West 176 203 2,800 -1,548 Descending Oakland Center
Sun 05:05:01 PM 37.5931 -122.3164 296° West 154 177 1,100 -1,210 Descending Oakland Center
Sun 05:06:03 PM 37.6108 -122.3567 299° West 139 160 300 -774 Descending Oakland Center

Login

Don't have an account? Register now (free) for customized features, flight alerts, and more!